Time;durP1;ratioP1;P1;durP2;ratioP2;P2;SDS_P1;SDS_P2;PMS_P1;PMS_P2;Temp;Humidity;BMP_temperature;BMP_pressure;BME280_temperature;BME280_humidity;BME280_pressure;Samples;Min_cycle;Max_cycle;Signal;HPM_P1;HPM_P2
2022/04/22 00:00:28;;;;;;;13.57;10.20;;;;;;;;;;5095889;28;20207;-69
2022/04/22 00:02:55;;;;;;;14.47;11.20;;;;;;;;;;5095740;28;20197;-69
2022/04/22 00:05:23;;;;;;;18.13;10.80;;;;;;;;;;5094982;28;20443;-69
2022/04/22 00:07:50;;;;;;;13.80;10.50;;;;;;;;;;5096199;28;20196;-69
2022/04/22 00:10:17;;;;;;;14.93;11.63;;;;;;;;;;5095911;28;20680;-69
2022/04/22 00:12:45;;;;;;;12.43;10.80;;;;;;;;;;5096290;28;20217;-69
2022/04/22 00:15:14;;;;;;;13.30;11.77;;;;;;;;;;5096514;28;20452;-69
2022/04/22 00:17:42;;;;;;;13.65;10.45;;;;;;;;;;5095793;28;20449;-69
2022/04/22 00:20:10;;;;;;;14.25;10.65;;;;;;;;;;5095611;28;20230;-69
2022/04/22 00:22:39;;;;;;;12.00;10.80;;;;;;;;;;5095685;28;20202;-69
2022/04/22 00:25:07;;;;;;;15.57;11.63;;;;;;;;;;5095712;28;20439;-68
2022/04/22 00:27:34;;;;;;;13.88;11.27;;;;;;;;;;5095891;28;20196;-68
2022/04/22 00:30:01;;;;;;;16.13;12.05;;;;;;;;;;5095307;28;20670;-69
2022/04/22 00:32:30;;;;;;;13.68;11.50;;;;;;;;;;5095185;28;20221;-69
2022/04/22 00:34:57;;;;;;;12.75;11.38;;;;;;;;;;5095288;28;20197;-68
2022/04/22 00:37:24;;;;;;;13.88;12.48;;;;;;;;;;5095233;28;20669;-68
2022/04/22 00:39:51;;;;;;;13.83;12.43;;;;;;;;;;5095493;28;20559;-69
2022/04/22 00:42:18;;;;;;;14.40;12.48;;;;;;;;;;5095590;28;20533;-69
2022/04/22 00:44:46;;;;;;;17.30;13.10;;;;;;;;;;5095281;28;20197;-69
2022/04/22 00:47:13;;;;;;;18.80;14.55;;;;;;;;;;5095011;28;20220;-68
2022/04/22 00:49:41;;;;;;;15.23;13.63;;;;;;;;;;5095220;28;20189;-69
2022/04/22 00:52:10;;;;;;;17.25;14.20;;;;;;;;;;5095083;28;20728;-69
2022/04/22 00:54:38;;;;;;;19.87;14.60;;;;;;;;;;5094740;28;20201;-69
2022/04/22 00:57:05;;;;;;;17.48;13.35;;;;;;;;;;5095110;28;20869;-69
2022/04/22 00:59:33;;;;;;;25.10;14.93;;;;;;;;;;5094624;28;20669;-69
2022/04/22 01:02:00;;;;;;;17.15;14.23;;;;;;;;;;5095033;28;20204;-69
2022/04/22 01:09:59;;;;;;;18.00;14.70;;;;;;;;;;5094655;28;20262;-68
2022/04/22 01:12:30;;;;;;;17.70;13.57;;;;;;;;;;5094788;28;20221;-69
2022/04/22 01:14:58;;;;;;;22.25;15.88;;;;;;;;;;5094864;28;20182;-69
2022/04/22 01:17:26;;;;;;;18.15;15.27;;;;;;;;;;5094177;28;20329;-68
2022/04/22 01:19:54;;;;;;;17.80;14.63;;;;;;;;;;5094593;28;20251;-69
2022/04/22 01:22:22;;;;;;;17.27;14.60;;;;;;;;;;5094841;28;20246;-69
2022/04/22 01:24:50;;;;;;;19.10;14.93;;;;;;;;;;5094139;28;20197;-69
2022/04/22 01:27:18;;;;;;;19.15;15.38;;;;;;;;;;5094993;28;20442;-69
2022/04/22 01:29:45;;;;;;;21.27;14.40;;;;;;;;;;5094411;28;20196;-69
2022/04/22 01:32:12;;;;;;;17.98;15.20;;;;;;;;;;5095213;28;20220;-69
2022/04/22 01:34:42;;;;;;;18.40;14.63;;;;;;;;;;5094535;28;20193;-69
2022/04/22 01:37:09;;;;;;;19.50;16.60;;;;;;;;;;5094474;28;20199;-69
2022/04/22 01:39:38;;;;;;;25.52;17.20;;;;;;;;;;5093956;28;20196;-69
2022/04/22 01:42:06;;;;;;;19.90;17.40;;;;;;;;;;5094296;28;20199;-69
2022/04/22 01:44:35;;;;;;;20.65;16.50;;;;;;;;;;5094169;28;20678;-69
2022/04/22 01:47:03;;;;;;;21.45;16.98;;;;;;;;;;5094257;28;20315;-69
2022/04/22 01:49:30;;;;;;;22.70;17.33;;;;;;;;;;5094121;28;20196;-69
2022/04/22 01:51:57;;;;;;;21.70;15.98;;;;;;;;;;5093749;28;20281;-69
2022/04/22 01:54:24;;;;;;;18.13;15.60;;;;;;;;;;5094594;28;20202;-69
2022/04/22 01:56:53;;;;;;;19.92;15.93;;;;;;;;;;5093739;28;20197;-68
2022/04/22 01:59:20;;;;;;;18.58;16.58;;;;;;;;;;5094006;28;20192;-69
2022/04/22 02:01:47;;;;;;;19.20;15.53;;;;;;;;;;5094238;28;20204;-69
2022/04/22 02:04:15;;;;;;;23.02;16.58;;;;;;;;;;5093553;28;20442;-69
2022/04/22 02:06:42;;;;;;;19.48;16.40;;;;;;;;;;5093917;28;20286;-69
2022/04/22 02:09:09;;;;;;;21.83;16.07;;;;;;;;;;5093479;28;20198;-69
2022/04/22 02:11:36;;;;;;;19.85;17.75;;;;;;;;;;5093813;28;20527;-69
2022/04/22 02:14:05;;;;;;;26.60;15.98;;;;;;;;;;5094323;28;20199;-69
2022/04/22 02:16:32;;;;;;;25.55;17.23;;;;;;;;;;5094168;28;20193;-69
2022/04/22 02:19:00;;;;;;;24.55;18.15;;;;;;;;;;5093420;28;20192;-69
2022/04/22 02:21:27;;;;;;;23.23;17.20;;;;;;;;;;5093711;28;20289;-69
2022/04/22 02:23:54;;;;;;;21.45;18.08;;;;;;;;;;5093682;28;20196;-69
2022/04/22 02:26:21;;;;;;;21.60;17.63;;;;;;;;;;5093653;28;20197;-69
2022/04/22 02:28:47;;;;;;;19.95;17.13;;;;;;;;;;5095414;28;20547;-69
2022/04/22 02:31:16;;;;;;;24.77;18.80;;;;;;;;;;5097789;28;20356;-69
2022/04/22 02:33:43;;;;;;;22.13;18.40;;;;;;;;;;5098620;28;20223;-69
2022/04/22 02:36:11;;;;;;;28.38;18.02;;;;;;;;;;5097680;28;20441;-69
2022/04/22 02:38:39;;;;;;;26.20;18.10;;;;;;;;;;5098307;28;20613;-69
2022/04/22 02:46:37;;;;;;;19.73;17.63;;;;;;;;;;5097655;28;20276;-69
2022/04/22 02:49:04;;;;;;;22.88;18.70;;;;;;;;;;5097264;28;20229;-69
2022/04/22 02:51:31;;;;;;;22.63;19.63;;;;;;;;;;5097368;28;20196;-69
2022/04/22 02:53:58;;;;;;;23.83;19.52;;;;;;;;;;5097470;28;20201;-69
2022/04/22 02:56:26;;;;;;;22.08;17.50;;;;;;;;;;5097347;28;20197;-69
2022/04/22 02:58:53;;;;;;;23.50;19.13;;;;;;;;;;5097554;28;20200;-69
2022/04/22 03:01:21;;;;;;;21.63;18.70;;;;;;;;;;5097417;28;20196;-69
2022/04/22 03:03:49;;;;;;;24.25;19.67;;;;;;;;;;5097306;28;20201;-69
2022/04/22 03:06:17;;;;;;;25.00;19.23;;;;;;;;;;5097095;28;20197;-68
2022/04/22 03:08:44;;;;;;;20.80;18.05;;;;;;;;;;5097254;28;20228;-69
2022/04/22 03:11:11;;;;;;;21.85;19.55;;;;;;;;;;5096908;28;20603;-69
2022/04/22 03:13:40;;;;;;;22.90;18.52;;;;;;;;;;5096709;28;20682;-68
2022/04/22 03:16:07;;;;;;;24.70;19.23;;;;;;;;;;5096901;28;20719;-69
2022/04/22 03:18:35;;;;;;;21.13;18.35;;;;;;;;;;5096963;28;20196;-69
2022/04/22 03:21:04;;;;;;;25.20;19.80;;;;;;;;;;5096601;28;20216;-69
2022/04/22 03:23:31;;;;;;;20.83;18.63;;;;;;;;;;5096572;28;20193;-69
2022/04/22 03:25:59;;;;;;;23.10;18.65;;;;;;;;;;5096516;28;20200;-68
2022/04/22 03:28:26;;;;;;;22.52;17.95;;;;;;;;;;5096530;28;20199;-68
2022/04/22 03:30:53;;;;;;;23.63;20.17;;;;;;;;;;5096690;28;20202;-69
2022/04/22 03:33:20;;;;;;;22.80;18.88;;;;;;;;;;5096936;28;20574;-68
2022/04/22 03:35:50;;;;;;;24.95;19.27;;;;;;;;;;5096743;28;20651;-69
2022/04/22 03:38:19;;;;;;;24.95;18.33;;;;;;;;;;5096253;28;20196;-69
2022/04/22 03:40:47;;;;;;;22.27;19.17;;;;;;;;;;5096146;28;20200;-69
2022/04/22 03:43:14;;;;;;;24.38;20.30;;;;;;;;;;5096497;28;20257;-69
2022/04/22 03:45:41;;;;;;;23.65;20.90;;;;;;;;;;5096455;28;20316;-69
2022/04/22 03:48:09;;;;;;;26.27;19.67;;;;;;;;;;5096182;28;20274;-69
2022/04/22 03:50:37;;;;;;;25.73;19.52;;;;;;;;;;5096168;28;20205;-69
2022/04/22 03:53:04;;;;;;;23.20;17.40;;;;;;;;;;5095960;28;20693;-69
2022/04/22 03:55:33;;;;;;;21.65;19.30;;;;;;;;;;5096235;28;20530;-69
2022/04/22 03:58:12;;;;;;;24.85;18.30;;;;;;;;;;5096518;28;20199;-69
2022/04/22 04:00:40;;;;;;;21.77;19.42;;;;;;;;;;5095834;28;20188;-69
2022/04/22 04:03:07;;;;;;;27.85;21.75;;;;;;;;;;5095860;28;20254;-69
2022/04/22 04:05:34;;;;;;;29.50;20.40;;;;;;;;;;5096369;28;20250;-69
2022/04/22 04:08:02;;;;;;;24.37;20.63;;;;;;;;;;5096175;28;20193;-69
2022/04/22 04:16:00;;;;;;;25.10;19.98;;;;;;;;;;5096108;28;20240;-73
2022/04/22 04:18:28;;;;;;;24.13;20.35;;;;;;;;;;5095886;28;20197;-73
2022/04/22 04:23:40;;;;;;;23.77;19.80;;;;;;;;;;5094964;28;20184;-73
2022/04/22 04:26:07;;;;;;;26.77;21.63;;;;;;;;;;5095036;28;20283;-73
2022/04/22 04:28:36;;;;;;;26.17;20.50;;;;;;;;;;5095219;28;20289;-73
2022/04/22 04:31:04;;;;;;;26.70;21.05;;;;;;;;;;5095147;28;20518;-74
2022/04/22 04:33:31;;;;;;;27.50;22.20;;;;;;;;;;5095750;28;20307;-73
2022/04/22 04:35:58;;;;;;;25.15;20.30;;;;;;;;;;5095112;28;20207;-73
2022/04/22 04:38:26;;;;;;;25.23;22.08;;;;;;;;;;5095546;28;20204;-73
2022/04/22 04:40:53;;;;;;;24.52;20.60;;;;;;;;;;5095443;28;20200;-73
2022/04/22 04:43:21;;;;;;;26.60;21.00;;;;;;;;;;5095058;28;20205;-73
2022/04/22 04:45:50;;;;;;;26.60;21.52;;;;;;;;;;5095073;28;20221;-73
2022/04/22 04:48:18;;;;;;;25.10;22.00;;;;;;;;;;5095257;28;20185;-73
2022/04/22 04:50:45;;;;;;;28.20;22.05;;;;;;;;;;5094362;28;20522;-73
2022/04/22 04:53:13;;;;;;;27.83;23.38;;;;;;;;;;5094861;28;20262;-73
2022/04/22 04:55:40;;;;;;;28.20;22.92;;;;;;;;;;5094417;28;20296;-73
2022/04/22 04:58:08;;;;;;;28.23;20.80;;;;;;;;;;5094976;28;20254;-73
2022/04/22 05:00:35;;;;;;;28.95;22.30;;;;;;;;;;5094977;28;20201;-73
2022/04/22 05:03:04;;;;;;;25.23;20.88;;;;;;;;;;5094519;28;20682;-73
2022/04/22 05:05:32;;;;;;;26.25;21.55;;;;;;;;;;5095162;28;20199;-73
2022/04/22 05:08:00;;;;;;;25.20;22.00;;;;;;;;;;5094456;28;20198;-73
2022/04/22 05:10:28;;;;;;;32.28;24.27;;;;;;;;;;5094879;28;20232;-73
2022/04/22 05:12:56;;;;;;;29.77;22.95;;;;;;;;;;5094578;28;20308;-73
2022/04/22 05:15:24;;;;;;;28.70;25.02;;;;;;;;;;5094648;28;20231;-75
2022/04/22 05:17:51;;;;;;;32.03;23.90;;;;;;;;;;5094251;28;20670;-73
2022/04/22 05:20:20;;;;;;;31.42;25.10;;;;;;;;;;5094412;28;20650;-73
2022/04/22 05:22:48;;;;;;;31.58;25.00;;;;;;;;;;5094217;28;20200;-69
2022/04/22 05:25:16;;;;;;;29.30;24.38;;;;;;;;;;5094209;28;20661;-69
2022/04/22 05:27:43;;;;;;;33.65;25.40;;;;;;;;;;5094149;28;20281;-69
2022/04/22 05:32:56;;;;;;;31.70;24.77;;;;;;;;;;5094088;28;20259;-69
2022/04/22 05:35:27;;;;;;;32.95;24.40;;;;;;;;;;5094044;28;20200;-69
2022/04/22 05:37:55;;;;;;;33.85;26.00;;;;;;;;;;5094255;28;20198;-69
2022/04/22 05:40:23;;;;;;;27.67;24.67;;;;;;;;;;5093980;28;20199;-69
2022/04/22 05:42:51;;;;;;;32.70;25.23;;;;;;;;;;5093813;28;20237;-69
2022/04/22 05:45:19;;;;;;;34.47;26.70;;;;;;;;;;5094504;28;20200;-70
2022/04/22 05:47:46;;;;;;;33.72;25.80;;;;;;;;;;5093861;28;20196;-69
2022/04/22 05:50:14;;;;;;;28.40;24.23;;;;;;;;;;5093867;28;20196;-69
2022/04/22 05:52:43;;;;;;;28.80;22.80;;;;;;;;;;5093905;28;20228;-69
2022/04/22 05:55:12;;;;;;;27.02;23.67;;;;;;;;;;5093697;28;20284;-69
2022/04/22 05:57:39;;;;;;;29.27;23.48;;;;;;;;;;5093869;28;20229;-69
2022/04/22 06:00:08;;;;;;;27.00;22.35;;;;;;;;;;5094015;28;20192;-69
2022/04/22 06:02:35;;;;;;;29.55;23.10;;;;;;;;;;5093559;28;20229;-70
2022/04/22 06:05:02;;;;;;;31.15;23.55;;;;;;;;;;5093546;28;20211;-69
2022/04/22 06:07:29;;;;;;;29.33;23.55;;;;;;;;;;5093388;28;20194;-69
2022/04/22 06:12:43;;;;;;;31.20;24.00;;;;;;;;;;5093677;28;20219;-72
2022/04/22 06:15:10;;;;;;;28.85;23.77;;;;;;;;;;5093516;28;20216;-69
2022/04/22 06:17:37;;;;;;;31.05;24.25;;;;;;;;;;5093488;28;20291;-69
2022/04/22 06:20:05;;;;;;;28.65;23.35;;;;;;;;;;5093438;28;20659;-70
2022/04/22 06:22:32;;;;;;;32.22;24.38;;;;;;;;;;5093567;28;20201;-71
2022/04/22 06:25:01;;;;;;;30.00;23.17;;;;;;;;;;5093752;28;20224;-69
2022/04/22 06:27:29;;;;;;;29.38;23.30;;;;;;;;;;5093311;28;20199;-69
2022/04/22 06:29:57;;;;;;;29.63;24.48;;;;;;;;;;5093840;28;20189;-69
2022/04/22 06:32:27;;;;;;;31.55;23.85;;;;;;;;;;5093585;28;20204;-69
2022/04/22 06:34:54;;;;;;;30.90;22.08;;;;;;;;;;5093615;28;20798;-69
2022/04/22 06:37:22;;;;;;;30.05;23.52;;;;;;;;;;5093610;28;20196;-69
2022/04/22 06:48:07;;;;;;;24.10;21.08;;;;;;;;;;5093312;28;20537;-69
2022/04/22 06:50:35;;;;;;;24.77;20.95;;;;;;;;;;5093158;28;20197;-69
2022/04/22 06:53:02;;;;;;;31.80;21.80;;;;;;;;;;5093573;28;20284;-69
2022/04/22 06:55:29;;;;;;;28.48;20.70;;;;;;;;;;5093410;28;20436;-69
2022/04/22 06:57:58;;;;;;;33.53;23.27;;;;;;;;;;5093316;28;20194;-69
2022/04/22 07:00:26;;;;;;;25.07;22.37;;;;;;;;;;5093560;28;20519;-69
2022/04/22 07:02:53;;;;;;;25.63;22.63;;;;;;;;;;5092970;28;20441;-69
2022/04/22 07:05:21;;;;;;;26.27;22.58;;;;;;;;;;5092999;28;20471;-69
2022/04/22 07:07:48;;;;;;;25.20;19.07;;;;;;;;;;5092890;28;20197;-69
2022/04/22 07:10:16;;;;;;;28.60;21.70;;;;;;;;;;5092953;28;20926;-69
2022/04/22 07:12:43;;;;;;;23.00;19.73;;;;;;;;;;5093516;28;20497;-69
2022/04/22 07:15:13;;;;;;;22.27;19.13;;;;;;;;;;5094995;28;20224;-69
2022/04/22 07:17:41;;;;;;;21.60;19.30;;;;;;;;;;5097019;28;20523;-69
2022/04/22 07:20:10;;;;;;;24.43;19.27;;;;;;;;;;5096897;28;20470;-69
2022/04/22 07:22:38;;;;;;;23.65;19.13;;;;;;;;;;5097223;28;20439;-69
2022/04/22 07:25:05;;;;;;;26.50;18.03;;;;;;;;;;5096889;28;20204;-69
2022/04/22 07:27:34;;;;;;;23.30;18.70;;;;;;;;;;5096473;28;20447;-69
2022/04/22 07:30:02;;;;;;;21.30;17.20;;;;;;;;;;5096294;28;21025;-69
2022/04/22 07:32:31;;;;;;;23.07;17.07;;;;;;;;;;5096465;28;20229;-69
2022/04/22 07:34:58;;;;;;;18.05;16.15;;;;;;;;;;5096182;28;20471;-69
2022/04/22 07:37:25;;;;;;;24.63;16.93;;;;;;;;;;5096686;28;20189;-69
2022/04/22 07:39:53;;;;;;;18.88;14.45;;;;;;;;;;5096832;28;20855;-69
2022/04/22 07:42:21;;;;;;;21.10;15.17;;;;;;;;;;5097112;28;20280;-69
2022/04/22 07:47:35;;;;;;;19.63;14.83;;;;;;;;;;5096941;28;20958;-69
2022/04/22 07:50:05;;;;;;;17.17;14.47;;;;;;;;;;5096249;28;20444;-69
2022/04/22 07:52:32;;;;;;;21.33;15.60;;;;;;;;;;5096928;28;20873;-69
2022/04/22 07:54:59;;;;;;;16.63;14.77;;;;;;;;;;5095851;28;20514;-70
2022/04/22 07:57:27;;;;;;;20.53;15.53;;;;;;;;;;5096311;28;20451;-69
2022/04/22 07:59:55;;;;;;;19.13;16.42;;;;;;;;;;5096009;28;20459;-69
2022/04/22 08:02:22;;;;;;;18.50;15.13;;;;;;;;;;5096452;28;20288;-69
2022/04/22 08:04:51;;;;;;;19.90;15.60;;;;;;;;;;5096050;28;20482;-70
2022/04/22 08:07:19;;;;;;;18.87;15.67;;;;;;;;;;5095797;28;20478;-69
2022/04/22 08:09:46;;;;;;;22.17;13.97;;;;;;;;;;5096025;28;20436;-70
2022/04/22 08:12:14;;;;;;;16.60;13.00;;;;;;;;;;5095564;28;20435;-70
2022/04/22 08:14:42;;;;;;;17.03;14.23;;;;;;;;;;5095091;28;20483;-69
2022/04/22 08:17:09;;;;;;;18.90;14.33;;;;;;;;;;5096144;28;20501;-69
2022/04/22 08:19:36;;;;;;;14.90;13.00;;;;;;;;;;5095455;28;20484;-69
2022/04/22 08:22:05;;;;;;;16.40;13.60;;;;;;;;;;5096027;28;20432;-69
2022/04/22 08:24:32;;;;;;;17.40;14.38;;;;;;;;;;5095622;28;20198;-69
2022/04/22 08:27:00;;;;;;;17.90;14.30;;;;;;;;;;5094711;28;20193;-69
2022/04/22 08:29:27;;;;;;;13.97;12.43;;;;;;;;;;5096055;28;20526;-69
2022/04/22 08:31:55;;;;;;;19.93;13.97;;;;;;;;;;5095155;28;20475;-69
2022/04/22 08:34:23;;;;;;;15.13;12.37;;;;;;;;;;5095019;28;20972;-69
2022/04/22 08:36:50;;;;;;;20.00;12.20;;;;;;;;;;5095436;28;20450;-69
2022/04/22 08:39:19;;;;;;;14.17;12.10;;;;;;;;;;5095034;28;20933;-69
2022/04/22 08:41:48;;;;;;;15.30;12.60;;;;;;;;;;5095385;28;20531;-69
2022/04/22 08:44:16;;;;;;;14.77;12.30;;;;;;;;;;5094906;28;20447;-69
2022/04/22 08:52:13;;;;;;;14.87;11.43;;;;;;;;;;5095250;28;20620;-72
2022/04/22 08:54:45;;;;;;;17.50;12.83;;;;;;;;;;5095227;28;20475;-69
2022/04/22 08:57:12;;;;;;;13.87;12.30;;;;;;;;;;5094901;28;20918;-69
2022/04/22 08:59:40;;;;;;;15.43;12.17;;;;;;;;;;5095092;28;20964;-69
2022/04/22 09:02:08;;;;;;;14.70;12.20;;;;;;;;;;5095040;28;20441;-69
2022/04/22 09:04:35;;;;;;;11.20;10.07;;;;;;;;;;5094685;28;20534;-69
2022/04/22 09:07:03;;;;;;;13.47;11.43;;;;;;;;;;5094543;28;20551;-69
2022/04/22 09:09:31;;;;;;;12.00;10.80;;;;;;;;;;5094445;28;20442;-69
2022/04/22 09:12:09;;;;;;;12.20;10.50;;;;;;;;;;5094719;28;21023;-69
2022/04/22 09:14:36;;;;;;;13.07;10.40;;;;;;;;;;5094517;28;20959;-69
2022/04/22 09:17:04;;;;;;;10.67;9.63;;;;;;;;;;5095720;28;20439;-69
2022/04/22 09:19:40;;;;;;;14.13;11.13;;;;;;;;;;5094362;28;20475;-69
2022/04/22 09:22:07;;;;;;;14.90;11.10;;;;;;;;;;5094892;28;20881;-69
2022/04/22 09:24:46;;;;;;;13.20;11.50;;;;;;;;;;5094745;28;20442;-69
2022/04/22 09:27:15;;;;;;;12.93;9.90;;;;;;;;;;5094258;28;20431;-69
2022/04/22 09:29:43;;;;;;;10.43;9.43;;;;;;;;;;5094392;28;20439;-69
2022/04/22 09:32:13;;;;;;;10.80;9.70;;;;;;;;;;5094100;28;20924;-69
2022/04/22 09:34:42;;;;;;;13.33;11.07;;;;;;;;;;5094392;28;20479;-69
2022/04/22 09:42:51;;;;;;;10.40;9.17;;;;;;;;;;5094383;28;20396;-69
2022/04/22 09:45:19;;;;;;;12.33;8.70;;;;;;;;;;5094057;28;20824;-69
2022/04/22 09:47:56;;;;;;;9.77;7.40;;;;;;;;;;5094263;28;20439;-69
2022/04/22 09:50:39;;;;;;;10.10;7.40;;;;;;;;;;5093768;28;20428;-70
2022/04/22 09:53:07;;;;;;;9.67;7.10;;;;;;;;;;5093916;28;20427;-69
2022/04/22 09:55:36;;;;;;;8.60;7.80;;;;;;;;;;5094261;28;20487;-69
2022/04/22 09:58:06;;;;;;;10.20;7.03;;;;;;;;;;5094045;28;20441;-69
2022/04/22 10:00:34;;;;;;;9.30;7.40;;;;;;;;;;5094315;28;20444;-69
2022/04/22 10:03:01;;;;;;;8.90;8.03;;;;;;;;;;5093686;28;20451;-69
2022/04/22 10:05:31;;;;;;;9.63;8.50;;;;;;;;;;5093853;28;20740;-69
2022/04/22 10:08:00;;;;;;;8.27;7.47;;;;;;;;;;5093609;28;20789;-69
2022/04/22 10:10:29;;;;;;;9.07;7.23;;;;;;;;;;5094292;28;20428;-69
2022/04/22 10:12:58;;;;;;;12.37;7.90;;;;;;;;;;5093524;28;20439;-69
2022/04/22 10:15:27;;;;;;;8.57;7.37;;;;;;;;;;5093482;28;20487;-70
2022/04/22 10:17:55;;;;;;;9.17;7.83;;;;;;;;;;5093445;28;20479;-69
2022/04/22 10:20:22;;;;;;;10.73;9.23;;;;;;;;;;5093615;28;20543;-69
2022/04/22 10:22:50;;;;;;;10.50;7.57;;;;;;;;;;5094439;28;20442;-69
2022/04/22 10:25:18;;;;;;;9.30;7.00;;;;;;;;;;5093602;28;20534;-70
2022/04/22 10:27:46;;;;;;;8.43;6.87;;;;;;;;;;5093245;28;20476;-69
2022/04/22 10:30:14;;;;;;;9.47;7.07;;;;;;;;;;5093668;28;20887;-69
2022/04/22 10:32:43;;;;;;;9.20;7.17;;;;;;;;;;5093187;28;20445;-69
2022/04/22 10:35:10;;;;;;;8.83;7.93;;;;;;;;;;5093439;28;20488;-69
2022/04/22 10:37:41;;;;;;;8.03;7.17;;;;;;;;;;5093541;28;20447;-69
2022/04/22 10:40:18;;;;;;;10.73;7.60;;;;;;;;;;5094121;28;20495;-69
2022/04/22 10:42:45;;;;;;;12.97;7.20;;;;;;;;;;5093483;28;20438;-69
2022/04/22 10:47:59;;;;;;;8.97;7.60;;;;;;;;;;5093351;28;20939;-69
2022/04/22 10:50:28;;;;;;;9.60;7.23;;;;;;;;;;5096518;28;20447;-69
2022/04/22 10:53:02;;;;;;;11.47;7.93;;;;;;;;;;5097438;28;20475;-70
2022/04/22 10:55:30;;;;;;;13.60;8.57;;;;;;;;;;5097834;28;20515;-69
2022/04/22 10:58:16;;;;;;;11.60;8.33;;;;;;;;;;5097382;28;20482;-69
2022/04/22 11:00:43;;;;;;;9.60;7.83;;;;;;;;;;5097077;28;20531;-69
2022/04/22 11:03:16;;;;;;;9.33;7.50;;;;;;;;;;5096877;28;20439;-69
2022/04/22 11:05:47;;;;;;;9.83;8.83;;;;;;;;;;5097257;28;20416;-69
2022/04/22 11:08:19;;;;;;;9.10;8.20;;;;;;;;;;5097175;28;20464;-69
2022/04/22 11:11:01;;;;;;;10.87;8.80;;;;;;;;;;5097515;28;20451;-69
2022/04/22 11:13:29;;;;;;;9.30;8.00;;;;;;;;;;5080449;28;20539;-69
2022/04/22 11:15:58;;;;;;;9.30;8.20;;;;;;;;;;5097156;28;20490;-69
2022/04/22 11:18:28;;;;;;;10.10;8.73;;;;;;;;;;5096514;28;21007;-69
2022/04/22 11:21:02;;;;;;;9.60;8.57;;;;;;;;;;5096594;28;20531;-70
2022/04/22 11:23:35;;;;;;;14.10;9.13;;;;;;;;;;5096943;28;20448;-70
2022/04/22 11:26:03;;;;;;;9.90;8.90;;;;;;;;;;5097311;28;20454;-72
2022/04/22 11:28:32;;;;;;;13.10;8.67;;;;;;;;;;5096696;28;20935;-73
2022/04/22 11:31:03;;;;;;;14.83;8.60;;;;;;;;;;5096727;28;20442;-72
2022/04/22 11:33:35;;;;;;;8.77;7.97;;;;;;;;;;5096505;28;20437;-67
2022/04/22 11:36:06;;;;;;;15.23;10.17;;;;;;;;;;5096775;28;20464;-70
2022/04/22 11:38:33;;;;;;;9.40;8.50;;;;;;;;;;5095818;28;20429;-71
2022/04/22 11:41:01;;;;;;;10.20;9.13;;;;;;;;;;5095909;28;20522;-70
2022/04/22 11:43:29;;;;;;;12.47;9.70;;;;;;;;;;5095983;28;20436;-70
2022/04/22 11:45:56;;;;;;;12.10;8.23;;;;;;;;;;5095754;28;20491;-71
2022/04/22 11:48:24;;;;;;;10.97;9.57;;;;;;;;;;5095465;28;21029;-71
2022/04/22 11:50:54;;;;;;;10.73;8.10;;;;;;;;;;5096405;28;20449;-71
2022/04/22 11:53:22;;;;;;;12.27;9.10;;;;;;;;;;5095593;28;20933;-71
2022/04/22 11:55:50;;;;;;;9.40;8.50;;;;;;;;;;5095814;28;20994;-71
2022/04/22 11:58:20;;;;;;;13.63;9.30;;;;;;;;;;5095869;28;20535;-71
2022/04/22 12:06:19;;;;;;;11.23;10.07;;;;;;;;;;5095939;28;20401;-70
2022/04/22 12:08:52;;;;;;;10.47;9.43;;;;;;;;;;5095817;28;20492;-70
2022/04/22 12:11:20;;;;;;;10.23;9.13;;;;;;;;;;5096167;28;20444;-70
2022/04/22 12:13:47;;;;;;;12.10;8.87;;;;;;;;;;5095540;28;20445;-71
2022/04/22 12:16:19;;;;;;;11.40;10.10;;;;;;;;;;5096052;28;20495;-70
2022/04/22 12:18:48;;;;;;;14.20;10.83;;;;;;;;;;5095667;28;20420;-70
2022/04/22 12:21:15;;;;;;;13.83;9.03;;;;;;;;;;5095826;28;20938;-71
2022/04/22 12:23:44;;;;;;;10.33;9.23;;;;;;;;;;5095387;28;20454;-70
2022/04/22 12:26:15;;;;;;;10.73;9.70;;;;;;;;;;5095798;28;20534;-71
2022/04/22 12:28:59;;;;;;;14.83;9.13;;;;;;;;;;5095320;28;20436;-71
2022/04/22 12:31:26;;;;;;;15.03;9.40;;;;;;;;;;5095931;28;20433;-71
2022/04/22 12:34:00;;;;;;;15.60;9.37;;;;;;;;;;5095579;28;20532;-71
2022/04/22 12:36:28;;;;;;;10.63;9.50;;;;;;;;;;5095707;28;20490;-71
2022/04/22 12:38:56;;;;;;;11.53;10.23;;;;;;;;;;5095312;28;20528;-70
2022/04/22 12:41:25;;;;;;;12.00;9.83;;;;;;;;;;5095169;28;20563;-70
2022/04/22 12:43:53;;;;;;;11.50;9.70;;;;;;;;;;5095592;28;20519;-70
2022/04/22 12:52:11;;;;;;;14.43;8.63;;;;;;;;;;5095309;28;20974;-70
2022/04/22 12:54:41;;;;;;;12.70;9.30;;;;;;;;;;5094950;28;20433;-71
2022/04/22 12:57:11;;;;;;;12.30;9.40;;;;;;;;;;5095237;28;20430;-71
2022/04/22 12:59:42;;;;;;;11.10;8.97;;;;;;;;;;5095027;28;20801;-71
2022/04/22 13:02:10;;;;;;;11.23;9.87;;;;;;;;;;5094665;28;20433;-72
2022/04/22 13:04:50;;;;;;;11.17;10.00;;;;;;;;;;5094879;28;20498;-70
2022/04/22 13:07:18;;;;;;;12.50;10.60;;;;;;;;;;5095482;28;20852;-70
2022/04/22 13:09:47;;;;;;;10.83;9.13;;;;;;;;;;5094100;28;20447;-71
2022/04/22 13:12:14;;;;;;;14.20;11.40;;;;;;;;;;5093344;28;20444;-71
2022/04/22 13:14:42;;;;;;;13.13;10.60;;;;;;;;;;5093880;28;20528;-71
2022/04/22 13:17:18;;;;;;;19.50;10.40;;;;;;;;;;5094478;28;20468;-71
2022/04/22 13:19:45;;;;;;;14.07;10.00;;;;;;;;;;5094467;28;20446;-72
2022/04/22 13:22:12;;;;;;;11.70;9.47;;;;;;;;;;5094589;28;20445;-71
2022/04/22 13:24:44;;;;;;;14.57;10.50;;;;;;;;;;5094199;28;20446;-70
2022/04/22 13:27:13;;;;;;;13.80;10.80;;;;;;;;;;5094925;28;20821;-70
2022/04/22 13:29:40;;;;;;;12.60;9.77;;;;;;;;;;5094336;28;20452;-70
2022/04/22 13:32:08;;;;;;;12.67;10.07;;;;;;;;;;5094190;28;20475;-70
2022/04/22 13:34:35;;;;;;;14.70;10.40;;;;;;;;;;5094411;28;20494;-70
2022/04/22 13:37:02;;;;;;;10.60;9.43;;;;;;;;;;5094033;28;20475;-70
2022/04/22 13:39:29;;;;;;;20.40;9.17;;;;;;;;;;5094172;28;20442;-72
2022/04/22 13:41:56;;;;;;;16.03;8.53;;;;;;;;;;5093923;28;20443;-72
2022/04/22 13:52:42;;;;;;;12.43;8.00;;;;;;;;;;5084106;28;20852;-71
2022/04/22 13:55:10;;;;;;;13.73;8.17;;;;;;;;;;5093969;28;20465;-71
2022/04/22 13:57:37;;;;;;;13.80;9.33;;;;;;;;;;5093780;28;20542;-71
2022/04/22 14:00:06;;;;;;;9.53;7.23;;;;;;;;;;5093622;28;20446;-71
2022/04/22 14:02:33;;;;;;;8.33;7.10;;;;;;;;;;5094360;28;20452;-71
2022/04/22 14:05:01;;;;;;;8.57;7.67;;;;;;;;;;5093472;28;20451;-71
2022/04/22 14:07:28;;;;;;;14.70;7.33;;;;;;;;;;5094026;28;20467;-71
2022/04/22 14:09:55;;;;;;;12.73;8.00;;;;;;;;;;5093821;28;20459;-71
2022/04/22 14:12:22;;;;;;;8.73;7.53;;;;;;;;;;5093855;28;20442;-71
2022/04/22 14:14:52;;;;;;;7.93;7.23;;;;;;;;;;5093392;28;20439;-71
2022/04/22 14:17:20;;;;;;;10.20;7.03;;;;;;;;;;5093265;28;20492;-71
2022/04/22 14:19:48;;;;;;;11.23;6.87;;;;;;;;;;5093860;28;20468;-71
2022/04/22 14:22:15;;;;;;;10.60;7.23;;;;;;;;;;5093325;28;20442;-71
2022/04/22 14:24:43;;;;;;;8.90;6.97;;;;;;;;;;5092702;28;20446;-72
2022/04/22 14:27:11;;;;;;;8.77;6.13;;;;;;;;;;5093497;28;20509;-71
2022/04/22 14:29:39;;;;;;;12.53;7.80;;;;;;;;;;5093186;28;20451;-72
2022/04/22 14:32:09;;;;;;;9.00;7.63;;;;;;;;;;5093590;28;20834;-71
2022/04/22 14:34:37;;;;;;;9.40;6.80;;;;;;;;;;5093136;28;20987;-72
2022/04/22 14:37:06;;;;;;;13.93;7.33;;;;;;;;;;5093012;28;20483;-72
2022/04/22 14:39:33;;;;;;;9.40;6.10;;;;;;;;;;5093005;28;20846;-71
2022/04/22 14:42:00;;;;;;;9.57;7.30;;;;;;;;;;5093028;28;20451;-71
2022/04/22 14:44:28;;;;;;;8.27;6.87;;;;;;;;;;5093088;28;20882;-71
2022/04/22 14:46:55;;;;;;;8.67;7.83;;;;;;;;;;5093645;28;20472;-71
2022/04/22 14:49:22;;;;;;;19.70;9.90;;;;;;;;;;5093454;28;20779;-72
2022/04/22 14:51:56;;;;;;;11.60;10.40;;;;;;;;;;5093490;28;20437;-71
2022/04/22 14:54:25;;;;;;;10.70;9.70;;;;;;;;;;5093724;28;20960;-71
2022/04/22 14:56:52;;;;;;;11.00;9.33;;;;;;;;;;5093516;28;20558;-71
2022/04/22 14:59:20;;;;;;;11.30;10.10;;;;;;;;;;5093563;28;20806;-71
2022/04/22 15:01:47;;;;;;;10.27;9.17;;;;;;;;;;5093384;28;20450;-72
2022/04/22 15:04:14;;;;;;;13.33;10.33;;;;;;;;;;5093087;28;20438;-70
2022/04/22 15:06:42;;;;;;;14.07;8.70;;;;;;;;;;5092126;28;20452;-70
2022/04/22 15:09:09;;;;;;;11.13;8.57;;;;;;;;;;5091891;28;20472;-70
2022/04/22 15:11:38;;;;;;;9.60;8.53;;;;;;;;;;5091997;28;20475;-70
2022/04/22 15:14:06;;;;;;;9.20;8.30;;;;;;;;;;5093734;28;20456;-68
2022/04/22 15:16:33;;;;;;;11.07;9.97;;;;;;;;;;5092804;28;20480;-71
2022/04/22 15:24:31;;;;;;;21.37;11.20;;;;;;;;;;5072159;28;20428;-70
2022/04/22 15:27:01;;;;;;;10.70;9.60;;;;;;;;;;5093212;28;20467;-70
2022/04/22 15:29:28;;;;;;;11.97;10.77;;;;;;;;;;5093423;28;20484;-70
2022/04/22 15:31:55;;;;;;;14.17;10.40;;;;;;;;;;5092750;28;20449;-70
2022/04/22 15:34:23;;;;;;;13.63;11.37;;;;;;;;;;5092805;28;20434;-70
2022/04/22 15:36:50;;;;;;;16.53;14.83;;;;;;;;;;5095914;28;20566;-69
2022/04/22 15:39:20;;;;;;;12.37;11.17;;;;;;;;;;5097068;28;20564;-70
2022/04/22 15:41:47;;;;;;;14.80;11.00;;;;;;;;;;5096663;28;20511;-70
2022/04/22 15:44:24;;;;;;;16.40;10.83;;;;;;;;;;5096806;28;20441;-70